Anthony, Texas
Current Conditions -  °F | °C
As of 8:58 PM on Friday 24 Oct 2014 (Local Time) from KBIF Reporting Station
Clear Clear  
Wind Chill: 20°   Ceiling: Unl
Heat Index: 20°   Visibility: 10mi
Dew Point:   Wind: 2mph
Humidity: 49%   Direction: 260°W
Pressure: 30.19"   Gusts: NA
Location:  32°N, 106.61°W
Report Text: KBIF 250258Z AUTO 26002KT 10SM CLR 20/09 A3019 RMK AO2 SLP177 T02040094 52010
Loading
Personal Weather Stations






























Interactive Weather Map
Tropical Storm Tracking
New forecast layout! Learn more

10-Day Weather Forecast

Advertisements
Track Severe Weather on mobile